Time;durP1;ratioP1;P1;durP2;ratioP2;P2;SDS_P1;SDS_P2;PMS_P1;PMS_P2;Temp;Humidity;BMP_temperature;BMP_pressure;BME280_temperature;BME280_humidity;BME280_pressure;Samples;Min_cycle;Max_cycle;Signal;HPM_P1;HPM_P2
2023/08/11 00:02:20;;;;;;;3.60;3.07;;;;;;;15.39;100.00;98634.66;5051196;28;20683;-83
2023/08/11 00:04:49;;;;;;;3.67;3.03;;;;;;;15.35;100.00;98639.38;5051103;28;20289;-83
2023/08/11 00:07:16;;;;;;;4.03;3.50;;;;;;;15.36;100.00;98641.06;5051214;28;20633;-83
2023/08/11 00:09:42;;;;;;;4.67;3.60;;;;;;;15.32;100.00;98638.72;5050785;28;20204;-82
2023/08/11 00:12:09;;;;;;;4.70;3.60;;;;;;;15.26;100.00;98633.88;5050954;28;20228;-83
2023/08/11 00:14:36;;;;;;;3.80;3.27;;;;;;;15.20;100.00;98637.03;5050996;28;20211;-82
2023/08/11 00:17:05;;;;;;;5.30;4.00;;;;;;;15.13;100.00;98638.50;5051109;28;20224;-83
2023/08/11 00:19:31;;;;;;;4.97;3.50;;;;;;;15.07;100.00;98637.19;5050671;28;20299;-83
2023/08/11 00:21:59;;;;;;;5.13;3.60;;;;;;;15.04;100.00;98637.41;5050788;28;20239;-83
2023/08/11 00:24:26;;;;;;;4.13;3.40;;;;;;;15.01;100.00;98645.66;5051167;28;20215;-83
2023/08/11 00:26:53;;;;;;;4.60;3.90;;;;;;;14.98;100.00;98640.56;5051409;28;20211;-83
2023/08/11 00:29:19;;;;;;;3.90;3.43;;;;;;;14.99;100.00;98641.41;5051259;28;20208;-83
2023/08/11 00:31:46;;;;;;;5.03;3.50;;;;;;;14.98;100.00;98645.06;5051467;28;20231;-83
2023/08/11 00:34:13;;;;;;;4.63;3.63;;;;;;;14.96;100.00;98647.81;5051874;28;20208;-82
2023/08/11 00:36:39;;;;;;;5.20;3.80;;;;;;;14.97;100.00;98648.69;5052222;28;20239;-82
2023/08/11 00:39:07;;;;;;;5.43;3.50;;;;;;;14.96;100.00;98650.50;5052362;28;20212;-83
2023/08/11 00:41:34;;;;;;;5.00;3.47;;;;;;;14.93;100.00;98652.53;5052601;28;20234;-83
2023/08/11 00:44:00;;;;;;;5.67;3.60;;;;;;;14.91;100.00;98644.66;5052618;28;20216;-82
2023/08/11 00:46:27;;;;;;;4.07;3.50;;;;;;;14.85;100.00;98650.47;5051444;28;20200;-83
2023/08/11 00:48:53;;;;;;;5.00;3.70;;;;;;;14.82;100.00;98650.72;5052800;28;20212;-83
2023/08/11 00:51:23;;;;;;;4.57;3.70;;;;;;;14.85;100.00;98649.66;5055863;28;20598;-82
2023/08/11 00:53:50;;;;;;;5.03;3.67;;;;;;;14.76;100.00;98645.03;5055377;28;20214;-82
2023/08/11 00:56:20;;;;;;;7.53;3.83;;;;;;;14.70;100.00;98650.81;5054756;28;20259;-82
2023/08/11 00:58:47;;;;;;;4.03;3.47;;;;;;;14.62;100.00;98650.56;5054305;28;20220;-83
2023/08/11 01:01:14;;;;;;;5.00;4.00;;;;;;;14.57;100.00;98650.09;5051376;28;20242;-83
2023/08/11 01:03:43;;;;;;;3.73;3.10;;;;;;;14.52;100.00;98652.25;5052043;28;20583;-82
2023/08/11 01:06:18;;;;;;;4.10;3.40;;;;;;;14.49;100.00;98642.69;5051567;28;20267;-81
2023/08/11 01:08:56;;;;;;;4.57;3.60;;;;;;;14.47;100.00;98643.75;5053310;28;20207;-81
2023/08/11 01:11:31;;;;;;;4.53;3.47;;;;;;;14.36;100.00;98643.75;5054048;28;20239;-82
2023/08/11 01:14:04;;;;;;;3.93;3.50;;;;;;;14.28;100.00;98641.69;5053927;28;20212;-82
2023/08/11 01:16:33;;;;;;;4.13;3.30;;;;;;;14.26;100.00;98640.94;5054181;28;20232;-82
2023/08/11 01:19:01;;;;;;;5.00;3.40;;;;;;;14.19;100.00;98638.88;5054100;28;20214;-83
2023/08/11 01:21:29;;;;;;;5.07;3.10;;;;;;;14.15;100.00;98645.34;5053613;28;20365;-81
2023/08/11 01:23:57;;;;;;;4.23;3.40;;;;;;;14.12;100.00;98643.75;5054451;28;20215;-81
2023/08/11 01:26:24;;;;;;;4.80;3.77;;;;;;;14.10;100.00;98647.47;5053962;28;20230;-82
2023/08/11 01:28:53;;;;;;;4.50;3.30;;;;;;;14.07;100.00;98661.88;5053949;28;20216;-81
2023/08/11 01:31:20;;;;;;;3.93;3.47;;;;;;;14.09;100.00;98659.09;5053543;28;20238;-82
2023/08/11 01:33:46;;;;;;;3.93;3.47;;;;;;;14.08;100.00;98660.91;5053683;28;20223;-81
2023/08/11 01:36:13;;;;;;;3.73;3.37;;;;;;;14.08;100.00;98660.06;5053682;28;20239;-81
2023/08/11 01:38:39;;;;;;;4.13;3.33;;;;;;;14.10;100.00;98666.97;5053537;28;20207;-82
2023/08/11 01:41:07;;;;;;;4.37;3.50;;;;;;;14.07;100.00;98661.88;5053347;28;20235;-83
2023/08/11 01:43:35;;;;;;;6.90;3.70;;;;;;;14.09;100.00;98669.72;5053816;28;20211;-84
2023/08/11 01:46:03;;;;;;;4.67;3.43;;;;;;;14.04;100.00;98667.41;5053720;28;20218;-82
2023/08/11 01:48:31;;;;;;;4.13;3.70;;;;;;;14.05;100.00;98666.44;5053700;28;20216;-83
2023/08/11 01:50:58;;;;;;;4.10;3.60;;;;;;;14.04;100.00;98661.25;5053128;28;20718;-82
2023/08/11 01:53:24;;;;;;;3.90;3.50;;;;;;;14.05;100.00;98668.28;5053441;28;20215;-83
2023/08/11 01:55:51;;;;;;;3.90;3.50;;;;;;;14.06;100.00;98670.78;5053506;28;20232;-83
2023/08/11 01:58:19;;;;;;;3.90;3.43;;;;;;;14.05;100.00;98660.31;5053417;28;20212;-82
2023/08/11 02:00:46;;;;;;;4.50;3.37;;;;;;;14.04;100.00;98662.09;5052620;28;20242;-83
2023/08/11 02:03:13;;;;;;;4.40;3.13;;;;;;;14.01;100.00;98650.84;5053008;28;20712;-82
2023/08/11 02:05:39;;;;;;;3.77;3.17;;;;;;;14.00;100.00;98649.16;5053129;28;20264;-84
2023/08/11 02:08:06;;;;;;;5.27;3.73;;;;;;;13.96;100.00;98642.38;5052985;28;20325;-83
2023/08/11 02:10:33;;;;;;;4.43;3.43;;;;;;;13.97;100.00;98641.41;5052946;28;20342;-81
2023/08/11 02:13:00;;;;;;;4.23;3.73;;;;;;;13.97;100.00;98639.59;5053509;28;20210;-82
2023/08/11 02:15:28;;;;;;;4.43;3.67;;;;;;;13.96;100.00;98637.06;5053215;28;20208;-81
2023/08/11 02:17:55;;;;;;;4.50;3.80;;;;;;;13.99;100.00;98640.31;5053110;28;20208;-82
2023/08/11 02:22:49;;;;;;;5.33;3.50;;;;;;;14.02;100.00;98636.59;5061825;28;20228;-87
2023/08/11 02:25:16;;;;;;;4.30;3.87;;;;;;;14.06;100.00;98638.91;5057713;28;20210;-87
2023/08/11 02:27:43;;;;;;;4.40;3.70;;;;;;;14.10;100.00;98651.00;5054443;28;20572;-87
2023/08/11 02:30:12;;;;;;;4.00;3.57;;;;;;;14.16;100.00;98644.38;5061363;28;20204;-87
2023/08/11 02:32:40;;;;;;;4.90;3.90;;;;;;;14.14;100.00;98638.31;5078775;28;20220;-89
2023/08/11 02:35:08;;;;;;;5.53;3.93;;;;;;;14.19;100.00;98645.00;5078608;28;20230;-88
2023/08/11 02:37:34;;;;;;;5.47;4.10;;;;;;;14.19;100.00;98639.69;5078779;28;20219;-87
2023/08/11 02:40:01;;;;;;;6.43;4.23;;;;;;;14.22;100.00;98638.63;5078251;28;20219;-87
2023/08/11 02:42:28;;;;;;;7.37;4.73;;;;;;;14.23;100.00;98638.50;5067710;28;20318;-86
2023/08/11 02:44:54;;;;;;;4.87;3.97;;;;;;;14.26;100.00;98642.75;5056643;28;20214;-87
2023/08/11 02:47:21;;;;;;;5.00;4.03;;;;;;;14.24;100.00;98642.84;5057726;28;20235;-87
2023/08/11 02:49:49;;;;;;;6.50;4.60;;;;;;;14.25;100.00;98644.56;5061617;28;20700;-88
2023/08/11 02:52:15;;;;;;;6.67;4.50;;;;;;;14.24;100.00;98642.84;5069326;28;20257;-87
2023/08/11 02:54:42;;;;;;;6.17;4.43;;;;;;;14.23;100.00;98643.00;5059794;28;20613;-87
2023/08/11 02:57:09;;;;;;;5.63;4.30;;;;;;;14.21;100.00;98642.25;5055502;28;20234;-89
2023/08/11 02:59:35;;;;;;;6.27;4.57;;;;;;;14.21;100.00;98637.78;5053771;28;20208;-88
2023/08/11 03:02:02;;;;;;;4.87;4.20;;;;;;;14.15;100.00;98642.69;5059912;28;20227;-87
2023/08/11 03:04:28;;;;;;;6.23;4.63;;;;;;;14.11;100.00;98641.25;5058732;28;20212;-83
2023/08/11 03:06:57;;;;;;;6.00;4.50;;;;;;;14.06;100.00;98641.56;5059058;28;20208;-88
2023/08/11 03:09:23;;;;;;;5.87;4.43;;;;;;;14.02;100.00;98636.59;5070098;28;20299;-88
2023/08/11 03:11:50;;;;;;;7.10;4.73;;;;;;;13.97;100.00;98644.06;5068496;28;20224;-88
2023/08/11 03:14:17;;;;;;;5.73;4.30;;;;;;;13.90;100.00;98642.81;5064381;28;20212;-87
2023/08/11 03:16:44;;;;;;;6.50;4.70;;;;;;;13.83;100.00;98639.78;5066421;28;20257;-87
2023/08/11 03:19:11;;;;;;;6.33;4.90;;;;;;;13.74;100.00;98647.59;5067905;28;20222;-88
2023/08/11 03:21:37;;;;;;;5.23;4.37;;;;;;;13.69;100.00;98644.44;5068803;28;20243;-88
2023/08/11 03:24:06;;;;;;;5.47;4.17;;;;;;;13.64;100.00;98646.56;5065978;28;20219;-88
2023/08/11 03:26:33;;;;;;;5.80;4.33;;;;;;;13.56;100.00;98643.63;5064721;28;20219;-88
2023/08/11 03:29:00;;;;;;;5.90;4.37;;;;;;;13.51;100.00;98645.78;5063257;28;20217;-89
2023/08/11 03:31:27;;;;;;;5.87;4.10;;;;;;;13.48;100.00;98641.53;5060616;28;20233;-88
2023/08/11 03:33:53;;;;;;;4.93;4.00;;;;;;;13.46;100.00;98647.91;5063409;28;20244;-88
2023/08/11 03:36:20;;;;;;;5.03;3.93;;;;;;;13.45;100.00;98646.22;5065833;28;20387;-88
2023/08/11 03:38:48;;;;;;;5.20;4.10;;;;;;;13.42;100.00;98649.06;5068937;28;20208;-88
2023/08/11 03:41:16;;;;;;;4.10;3.70;;;;;;;13.41;100.00;98642.94;5068577;28;20661;-88
2023/08/11 03:43:42;;;;;;;4.40;3.50;;;;;;;13.39;100.00;98641.34;5067496;28;20725;-89
2023/08/11 03:46:09;;;;;;;5.37;4.07;;;;;;;13.37;100.00;98645.91;5067938;28;20242;-88
2023/08/11 03:48:36;;;;;;;6.70;4.30;;;;;;;13.37;100.00;98643.25;5069311;28;20306;-89
2023/08/11 03:51:03;;;;;;;4.90;3.90;;;;;;;13.40;100.00;98648.34;5068360;28;20278;-89
2023/08/11 03:53:30;;;;;;;5.23;4.10;;;;;;;13.39;100.00;98644.00;5067594;28;20330;-87
2023/08/11 03:55:57;;;;;;;5.67;4.53;;;;;;;13.39;100.00;98646.66;5067987;28;20208;-87
2023/08/11 03:58:25;;;;;;;5.67;4.40;;;;;;;13.43;100.00;98648.09;5067888;28;20295;-89
2023/08/11 04:00:53;;;;;;;6.53;4.53;;;;;;;13.44;100.00;98649.84;5064352;28;20234;-87
2023/08/11 04:03:22;;;;;;;5.43;4.27;;;;;;;13.45;100.00;98652.34;5062259;28;20214;-87
2023/08/11 04:05:48;;;;;;;5.13;4.20;;;;;;;13.46;100.00;98650.56;5063864;28;20215;-88
2023/08/11 04:08:15;;;;;;;7.17;4.53;;;;;;;13.39;100.00;98646.66;5064453;28;20238;-89
2023/08/11 04:10:42;;;;;;;6.70;4.63;;;;;;;13.40;100.00;98651.88;5065197;28;20235;-88
2023/08/11 04:13:08;;;;;;;6.03;4.37;;;;;;;13.45;100.00;98651.53;5062847;28;20219;-88
2023/08/11 04:15:36;;;;;;;9.30;5.13;;;;;;;13.40;100.00;98653.66;5064714;28;20211;-89
2023/08/11 04:18:04;;;;;;;5.27;4.13;;;;;;;13.35;100.00;98655.78;5066313;28;20242;-88
2023/08/11 04:20:30;;;;;;;4.70;4.07;;;;;;;13.29;100.00;98651.78;5065185;28;20283;-87
2023/08/11 04:22:57;;;;;;;5.13;4.00;;;;;;;13.27;100.00;98660.81;5064507;28;20210;-88
2023/08/11 04:25:24;;;;;;;5.67;4.33;;;;;;;13.24;100.00;98650.41;5069141;28;20222;-89
2023/08/11 04:27:50;;;;;;;5.17;4.07;;;;;;;13.23;100.00;98652.22;5069929;28;20221;-88
2023/08/11 04:30:17;;;;;;;5.23;3.97;;;;;;;13.18;100.00;98651.69;5073250;28;20275;-89
2023/08/11 04:32:45;;;;;;;4.87;4.00;;;;;;;13.18;100.00;98643.72;5073835;28;20203;-88
2023/08/11 04:35:12;;;;;;;4.97;3.57;;;;;;;13.17;100.00;98642.03;5073933;28;20204;-89
2023/08/11 04:37:39;;;;;;;4.60;3.87;;;;;;;13.20;100.00;98651.59;5074126;28;20325;-87
2023/08/11 04:40:10;;;;;;;4.03;3.60;;;;;;;13.23;100.00;98646.06;5073946;28;20215;-87
2023/08/11 04:42:37;;;;;;;3.57;3.27;;;;;;;13.23;100.00;98646.06;5075314;28;20230;-88
2023/08/11 04:45:05;;;;;;;4.30;3.67;;;;;;;13.29;100.00;98643.81;5075316;28;20269;-87
2023/08/11 04:47:32;;;;;;;4.90;4.37;;;;;;;13.35;100.00;98655.78;5074890;28;20215;-88
2023/08/11 04:50:00;;;;;;;4.30;3.90;;;;;;;13.43;100.00;98642.81;5074794;28;20242;-88
2023/08/11 04:52:27;;;;;;;5.37;4.17;;;;;;;13.49;100.00;98653.84;5073166;28;20232;-88
2023/08/11 04:54:53;;;;;;;4.63;4.17;;;;;;;13.58;100.00;98641.69;5073428;28;20230;-87
2023/08/11 04:57:20;;;;;;;5.10;3.87;;;;;;;13.68;100.00;98648.88;5075631;28;20254;-87
2023/08/11 04:59:47;;;;;;;4.60;4.10;;;;;;;13.73;100.00;98645.88;5080747;28;20191;-88
2023/08/11 05:02:14;;;;;;;4.40;3.70;;;;;;;13.85;100.00;98647.63;5080543;28;20296;-87
2023/08/11 05:04:40;;;;;;;6.53;4.43;;;;;;;13.99;100.00;98652.78;5076810;28;20208;-86
2023/08/11 05:07:08;;;;;;;6.43;4.40;;;;;;;14.07;100.00;98651.25;5061160;28;20214;-87
2023/08/11 05:09:36;;;;;;;4.97;4.10;;;;;;;14.19;100.00;98649.50;5064924;28;20690;-87
2023/08/11 05:12:03;;;;;;;5.30;4.53;;;;;;;14.31;100.00;98649.41;5066003;28;20241;-88
2023/08/11 05:14:29;;;;;;;4.30;3.73;;;;;;;14.42;100.00;98646.78;5071272;28;20237;-87
2023/08/11 05:16:56;;;;;;;4.90;4.37;;;;;;;14.57;100.00;98644.75;5071816;28;20232;-88
2023/08/11 05:19:25;;;;;;;5.60;4.80;;;;;;;14.76;100.00;98653.00;5071807;28;20224;-88
2023/08/11 05:21:51;;;;;;;5.77;4.33;;;;;;;14.91;100.00;98657.16;5070395;28;20235;-88
2023/08/11 05:24:19;;;;;;;5.93;4.57;;;;;;;15.06;100.00;98653.28;5070164;28;20772;-89
2023/08/11 05:26:46;;;;;;;5.23;4.30;;;;;;;15.13;100.00;98665.97;5069842;28;20208;-88
2023/08/11 05:29:12;;;;;;;5.80;4.30;;;;;;;15.26;100.00;98665.84;5070095;28;20230;-87
2023/08/11 05:31:39;;;;;;;6.40;4.43;;;;;;;15.29;100.00;98674.47;5071235;28;20227;-88
2023/08/11 05:34:09;;;;;;;5.47;4.23;;;;;;;15.43;100.00;98678.69;5068321;28;20280;-88
2023/08/11 05:36:36;;;;;;;5.17;4.20;;;;;;;15.60;100.00;98670.22;5062972;28;20204;-87
2023/08/11 05:39:04;;;;;;;4.70;3.77;;;;;;;15.76;100.00;98676.81;5042521;28;20262;-87
2023/08/11 05:41:32;;;;;;;4.30;3.80;;;;;;;15.92;100.00;98681.75;5042265;28;20255;-87
2023/08/11 05:43:58;;;;;;;6.93;4.10;;;;;;;16.03;100.00;98686.06;5041867;28;20216;-87
2023/08/11 05:46:25;;;;;;;4.77;4.07;;;;;;;16.17;100.00;98676.94;5042211;28;20248;-86
2023/08/11 05:48:51;;;;;;;5.03;3.73;;;;;;;16.46;100.00;98678.88;5041242;28;20237;-87
2023/08/11 05:51:18;;;;;;;4.37;3.90;;;;;;;16.89;100.00;98676.09;5040737;28;20500;-88
2023/08/11 05:53:44;;;;;;;4.80;3.40;;;;;;;17.47;100.00;98670.91;5041509;28;20217;-87
2023/08/11 05:56:11;;;;;;;5.53;3.70;;;;;;;18.05;100.00;98661.19;5042683;28;20575;-88
2023/08/11 05:58:39;;;;;;;5.70;3.80;;;;;;;18.62;100.00;98656.69;5045048;28;20296;-87
2023/08/11 06:01:05;;;;;;;5.03;4.20;;;;;;;19.02;95.31;98651.94;5044464;28;20301;-88
2023/08/11 06:03:32;;;;;;;6.80;4.10;;;;;;;19.41;91.81;98642.78;5047899;28;20204;-88
2023/08/11 06:06:02;;;;;;;4.90;3.67;;;;;;;19.83;88.54;98653.84;5046620;28;20215;-88
2023/08/11 06:08:28;;;;;;;4.57;3.70;;;;;;;20.20;86.43;98651.91;5046030;28;20232;-88
2023/08/11 06:10:55;;;;;;;4.30;3.57;;;;;;;20.51;83.58;98646.00;5043275;28;20351;-83
2023/08/11 06:13:22;;;;;;;6.33;4.10;;;;;;;20.73;80.77;98634.72;5033772;28;20231;-85
2023/08/11 06:15:50;;;;;;;3.83;3.43;;;;;;;20.99;78.81;98635.63;5033271;28;20212;-84
2023/08/11 06:18:17;;;;;;;4.30;3.83;;;;;;;21.09;76.23;98622.06;5033400;28;20601;-83
2023/08/11 06:20:44;;;;;;;4.53;3.83;;;;;;;21.35;75.70;98623.72;5032960;28;20244;-81
2023/08/11 06:23:11;;;;;;;7.83;4.03;;;;;;;21.44;74.74;98628.13;5033379;28;20213;-77
2023/08/11 06:25:38;;;;;;;3.97;3.47;;;;;;;21.54;73.70;98619.91;5033015;28;20205;-78
2023/08/11 06:28:07;;;;;;;5.37;3.90;;;;;;;21.70;72.49;98620.84;5033002;28;20213;-78
2023/08/11 06:30:34;;;;;;;4.50;3.60;;;;;;;21.84;72.91;98617.53;5032518;28;20307;-78
2023/08/11 06:33:02;;;;;;;4.10;3.70;;;;;;;22.01;71.59;98613.84;5032960;28;20209;-78
2023/08/11 06:35:29;;;;;;;3.80;3.40;;;;;;;22.16;71.03;98619.44;5032991;28;20208;-80
2023/08/11 06:37:55;;;;;;;4.70;3.40;;;;;;;22.16;70.15;98611.34;5032886;28;20236;-82
2023/08/11 06:40:22;;;;;;;4.73;3.80;;;;;;;21.81;70.13;98608.94;5032473;28;20209;-82
2023/08/11 06:42:48;;;;;;;3.83;3.17;;;;;;;21.33;72.88;98620.34;5032626;28;20213;-81
2023/08/11 06:45:15;;;;;;;3.90;3.43;;;;;;;20.80;76.30;98641.16;5032854;28;20220;-81
2023/08/11 06:47:49;;;;;;;6.30;3.67;;;;;;;20.31;79.17;98649.81;5031872;28;20271;-82
2023/08/11 06:50:17;;;;;;;5.30;3.77;;;;;;;20.03;82.09;98661.59;5032366;28;20291;-82
2023/08/11 06:52:43;;;;;;;4.27;3.87;;;;;;;19.78;83.55;98659.66;5032490;28;20283;-83
2023/08/11 06:55:10;;;;;;;3.90;3.40;;;;;;;19.65;85.62;98669.91;5032647;28;20235;-82
2023/08/11 06:57:36;;;;;;;3.50;3.20;;;;;;;19.56;86.22;98662.75;5032415;28;20721;-82
2023/08/11 07:00:04;;;;;;;3.97;3.40;;;;;;;19.51;86.46;98665.00;5032350;28;20216;-83
2023/08/11 07:02:30;;;;;;;4.00;3.60;;;;;;;19.55;87.43;98666.41;5032630;28;20229;-84
2023/08/11 07:04:57;;;;;;;4.30;3.40;;;;;;;19.58;88.36;98674.16;5032508;28;20215;-81
2023/08/11 07:07:24;;;;;;;4.40;3.50;;;;;;;19.63;87.91;98663.00;5032409;28;20577;-78
2023/08/11 07:09:51;;;;;;;4.13;3.73;;;;;;;19.76;87.87;98664.31;5031937;28;20209;-81
2023/08/11 07:12:17;;;;;;;5.90;3.67;;;;;;;19.85;87.88;98667.94;5032454;28;20228;-83
2023/08/11 07:14:44;;;;;;;4.60;3.93;;;;;;;19.88;86.42;98665.78;5032167;28;20220;-78
2023/08/11 07:17:11;;;;;;;3.70;3.23;;;;;;;19.96;86.86;98667.72;5032263;28;20591;-80
2023/08/11 07:19:37;;;;;;;3.97;3.40;;;;;;;20.11;87.03;98663.56;5029333;28;20286;-79
2023/08/11 07:22:04;;;;;;;4.83;3.77;;;;;;;20.25;85.86;98666.53;5031059;28;20232;-81
2023/08/11 07:24:32;;;;;;;4.50;3.50;;;;;;;20.28;84.27;98660.03;5031338;28;20232;-79
2023/08/11 07:26:58;;;;;;;4.00;3.60;;;;;;;20.37;84.31;98668.00;5031143;28;20219;-79
2023/08/11 07:29:25;;;;;;;4.10;3.20;;;;;;;20.52;83.44;98666.47;5030585;28;20280;-79
2023/08/11 07:31:51;;;;;;;3.57;3.27;;;;;;;20.63;83.82;98671.59;5031123;28;20664;-81
2023/08/11 07:34:18;;;;;;;3.47;3.17;;;;;;;20.68;82.76;98660.38;5031351;28;20208;-82
2023/08/11 07:36:45;;;;;;;4.47;3.30;;;;;;;20.80;81.11;98665.34;5031022;28;20243;-79
2023/08/11 07:39:12;;;;;;;4.27;3.43;;;;;;;20.93;81.26;98667.66;5030186;28;20251;-79
2023/08/11 07:41:40;;;;;;;6.00;3.70;;;;;;;21.09;82.13;98671.28;5030983;28;20228;-78
2023/08/11 07:44:06;;;;;;;4.00;3.60;;;;;;;21.22;79.74;98663.63;5030830;28;20219;-77
2023/08/11 07:46:33;;;;;;;5.43;3.40;;;;;;;21.27;80.20;98668.56;5030959;28;20219;-78
2023/08/11 07:48:59;;;;;;;4.53;3.27;;;;;;;21.45;78.70;98656.69;5030777;28;20208;-78
2023/08/11 07:51:26;;;;;;;5.17;3.53;;;;;;;21.55;76.69;98660.13;5030548;28;20232;-78
2023/08/11 07:53:52;;;;;;;5.17;3.63;;;;;;;21.62;77.42;98660.28;5030641;28;20205;-78
2023/08/11 07:56:19;;;;;;;5.63;3.33;;;;;;;21.72;78.40;98671.81;5031009;28;20212;-76
2023/08/11 07:58:47;;;;;;;4.20;3.63;;;;;;;21.90;78.32;98673.41;5030198;28;20232;-78
2023/08/11 08:01:14;;;;;;;8.97;4.60;;;;;;;22.10;76.41;98668.56;5030603;28;20762;-78
2023/08/11 08:03:41;;;;;;;3.87;3.17;;;;;;;22.11;77.44;98667.53;5030372;28;20204;-78
2023/08/11 08:06:07;;;;;;;3.57;3.23;;;;;;;22.21;76.15;98665.56;5030472;28;20205;-79
2023/08/11 08:08:34;;;;;;;3.87;3.33;;;;;;;22.22;76.03;98668.09;5030211;28;20594;-79
2023/08/11 08:11:01;;;;;;;3.90;3.10;;;;;;;22.41;73.60;98665.09;5030603;28;20236;-78
2023/08/11 08:13:28;;;;;;;3.70;3.30;;;;;;;22.48;73.88;98660.75;5031289;28;20213;-79
2023/08/11 08:15:56;;;;;;;3.67;3.30;;;;;;;22.60;73.06;98659.41;5031274;28;20355;-77
2023/08/11 08:18:23;;;;;;;3.53;3.20;;;;;;;22.67;73.28;98660.41;5031272;28;20302;-80
2023/08/11 08:23:17;;;;;;;3.20;2.90;;;;;;;22.91;71.42;98652.31;5068279;28;20227;-79
2023/08/11 08:25:44;;;;;;;3.90;3.07;;;;;;;23.07;72.42;98668.47;5070973;28;20207;-78
2023/08/11 08:28:11;;;;;;;3.07;2.83;;;;;;;23.18;70.51;98660.06;5071055;28;20203;-78
2023/08/11 08:30:38;;;;;;;3.60;3.20;;;;;;;23.25;70.62;98654.78;5070618;28;20215;-82
2023/08/11 08:33:07;;;;;;;3.90;3.17;;;;;;;23.40;69.60;98658.47;5071104;28;20207;-77
2023/08/11 08:35:34;;;;;;;4.43;3.10;;;;;;;23.45;68.68;98656.94;5071030;28;20211;-77
2023/08/11 08:38:00;;;;;;;4.53;3.70;;;;;;;23.52;68.39;98646.28;5070854;28;20234;-78
2023/08/11 08:40:28;;;;;;;3.37;3.07;;;;;;;23.61;67.28;98643.38;5070559;28;20203;-78
2023/08/11 08:42:54;;;;;;;3.30;2.97;;;;;;;23.65;67.41;98650.09;5070725;28;20246;-78
2023/08/11 08:45:22;;;;;;;3.60;3.27;;;;;;;23.75;67.36;98648.03;5070711;28;20204;-78
2023/08/11 08:47:52;;;;;;;3.63;3.30;;;;;;;23.97;64.19;98635.63;5070500;28;20207;-78
2023/08/11 08:50:22;;;;;;;3.43;2.73;;;;;;;23.97;64.46;98635.63;5070903;28;20206;-78
2023/08/11 08:52:49;;;;;;;4.70;3.40;;;;;;;24.15;64.43;98631.63;5070632;28;20231;-78
2023/08/11 08:55:16;;;;;;;3.67;2.90;;;;;;;24.18;66.09;98650.19;5070749;28;20215;-79
2023/08/11 08:57:43;;;;;;;4.93;3.00;;;;;;;24.29;65.50;98638.97;5070391;28;20207;-78
2023/08/11 09:00:11;;;;;;;5.70;2.90;;;;;;;24.37;62.76;98617.28;5070196;28;20212;-78
2023/08/11 09:02:38;;;;;;;5.60;3.10;;;;;;;24.57;61.80;98615.78;5070407;28;20236;-79
2023/08/11 09:05:06;;;;;;;3.10;2.80;;;;;;;24.68;61.08;98615.38;5070591;28;20238;-79
2023/08/11 09:07:34;;;;;;;2.97;2.60;;;;;;;24.76;60.44;98609.06;5070655;28;20399;-78
2023/08/11 09:10:00;;;;;;;5.00;3.20;;;;;;;25.01;58.46;98594.25;5071374;28;20207;-79
2023/08/11 09:12:27;;;;;;;3.43;3.13;;;;;;;25.01;57.84;98589.72;5073868;28;20227;-79
2023/08/11 09:14:54;;;;;;;3.07;2.77;;;;;;;25.08;59.09;98604.16;5074063;28;20209;-79
2023/08/11 09:17:21;;;;;;;4.53;3.07;;;;;;;25.11;57.07;98590.25;5074156;28;20210;-79
2023/08/11 09:19:50;;;;;;;3.00;2.70;;;;;;;25.22;56.69;98576.25;5073874;28;20308;-79
2023/08/11 09:22:16;;;;;;;3.63;3.33;;;;;;;25.20;56.17;98586.44;5072782;28;20242;-79
2023/08/11 09:24:46;;;;;;;3.43;2.97;;;;;;;25.29;56.76;98598.06;5073579;28;20207;-78
2023/08/11 09:27:14;;;;;;;2.90;2.70;;;;;;;25.26;56.25;98582.16;5071357;28;20222;-78
2023/08/11 09:29:40;;;;;;;3.13;2.83;;;;;;;25.45;56.36;98587.00;5071066;28;20532;-78
2023/08/11 09:32:07;;;;;;;3.07;2.77;;;;;;;25.49;56.97;98594.56;5070640;28;20696;-79
2023/08/11 09:34:34;;;;;;;3.53;3.07;;;;;;;25.51;56.56;98592.53;5071538;28;20308;-79
2023/08/11 09:37:00;;;;;;;2.97;2.77;;;;;;;25.50;55.23;98580.03;5073677;28;20199;-78
2023/08/11 09:39:28;;;;;;;3.10;2.80;;;;;;;25.62;55.47;98583.06;5072578;28;20249;-86
2023/08/11 09:41:56;;;;;;;3.23;2.93;;;;;;;25.67;54.71;98577.94;5070844;28;20219;-81
2023/08/11 09:44:22;;;;;;;3.40;3.00;;;;;;;25.83;53.38;98574.97;5070553;28;20288;-82
2023/08/11 09:46:49;;;;;;;3.40;3.10;;;;;;;25.88;55.93;98595.06;5070790;28;20207;-81
2023/08/11 09:49:17;;;;;;;3.17;2.87;;;;;;;25.94;55.09;98588.91;5072673;28;20318;-81
2023/08/11 09:51:44;;;;;;;3.23;2.70;;;;;;;26.01;53.81;98580.84;5073826;28;20227;-80
2023/08/11 09:54:12;;;;;;;3.13;2.83;;;;;;;25.85;52.08;98562.09;5071776;28;20207;-86
2023/08/11 09:56:41;;;;;;;3.60;2.77;;;;;;;25.81;52.45;98567.06;5070964;28;20674;-81
2023/08/11 09:59:12;;;;;;;3.73;3.10;;;;;;;25.83;54.03;98583.09;5070191;28;20233;-89
2023/08/11 10:01:38;;;;;;;3.33;3.03;;;;;;;26.12;52.82;98575.78;5071950;28;20249;-84
2023/08/11 10:04:10;;;;;;;3.30;2.97;;;;;;;26.20;52.53;98572.09;5073408;28;20748;-82
2023/08/11 10:06:42;;;;;;;3.10;2.80;;;;;;;26.28;51.14;98564.66;5071917;28;20215;-78
2023/08/11 10:09:13;;;;;;;3.10;2.80;;;;;;;26.23;52.19;98577.97;5069844;28;20662;-85
2023/08/11 10:11:41;;;;;;;3.20;2.90;;;;;;;26.22;53.18;98587.09;5070046;28;20223;-84
2023/08/11 10:14:11;;;;;;;4.33;3.30;;;;;;;26.46;51.69;98578.59;5070408;28;20215;-81
2023/08/11 10:16:39;;;;;;;3.40;3.10;;;;;;;26.47;50.86;98569.44;5072949;28;20207;-82
2023/08/11 10:19:07;;;;;;;3.20;2.90;;;;;;;26.40;50.16;98567.69;5072727;28;20238;-83
2023/08/11 10:21:34;;;;;;;3.50;3.20;;;;;;;26.37;50.56;98568.94;5072287;28;20246;-80
2023/08/11 10:24:01;;;;;;;3.27;2.90;;;;;;;26.36;50.87;98567.25;5073074;28;20192;-78
2023/08/11 10:26:29;;;;;;;2.97;2.67;;;;;;;26.33;51.54;98570.34;5073077;28;20207;-78
2023/08/11 10:28:56;;;;;;;3.73;2.93;;;;;;;26.47;50.68;98568.59;5072705;28;20203;-78
2023/08/11 10:31:25;;;;;;;3.30;2.90;;;;;;;26.52;50.34;98566.97;5072235;28;20613;-78
2023/08/11 10:33:52;;;;;;;4.07;2.93;;;;;;;26.77;50.88;98573.66;5072611;28;20217;-78
2023/08/11 10:36:23;;;;;;;3.50;3.20;;;;;;;26.79;49.89;98568.91;5072409;28;20218;-78
2023/08/11 10:39:00;;;;;;;3.17;2.83;;;;;;;26.83;49.50;98581.00;5072371;28;20223;-80
2023/08/11 10:41:28;;;;;;;3.23;2.93;;;;;;;26.77;50.12;98579.09;5072186;28;20227;-77
2023/08/11 10:43:55;;;;;;;5.10;2.97;;;;;;;26.83;49.95;98583.72;5072432;28;20218;-79
2023/08/11 10:46:25;;;;;;;3.13;2.70;;;;;;;26.89;49.28;98569.38;5072322;28;20209;-77
2023/08/11 10:48:53;;;;;;;4.73;3.13;;;;;;;27.04;50.25;98583.69;5072321;28;20237;-82
2023/08/11 10:51:24;;;;;;;3.38;3.00;;;;;;;27.00;48.96;98571.53;5071568;28;20227;-80
2023/08/11 10:53:51;;;;;;;3.87;3.07;;;;;;;27.08;48.49;98567.84;5072021;28;20591;-84
2023/08/11 10:56:28;;;;;;;3.80;3.40;;;;;;;27.03;48.22;98565.72;5071812;28;20844;-80
2023/08/11 10:59:05;;;;;;;3.50;3.20;;;;;;;26.96;48.44;98570.28;5070264;28;20222;-80
2023/08/11 11:01:33;;;;;;;3.93;3.20;;;;;;;27.03;49.64;98582.84;5070735;28;20884;-81
2023/08/11 11:04:00;;;;;;;3.47;3.17;;;;;;;27.12;49.80;98579.97;5071409;28;20212;-82
2023/08/11 11:06:27;;;;;;;3.50;3.05;;;;;;;27.17;49.68;98581.09;5071052;28;20211;-80
2023/08/11 11:08:54;;;;;;;3.65;3.05;;;;;;;27.25;51.32;98594.50;5070889;28;20598;-80
2023/08/11 11:11:20;;;;;;;3.60;3.10;;;;;;;27.42;49.38;98571.41;5069886;28;20600;-80
2023/08/11 11:13:47;;;;;;;3.22;2.90;;;;;;;27.58;49.63;98581.94;5070529;28;20240;-80
2023/08/11 11:16:14;;;;;;;3.30;3.00;;;;;;;27.73;48.96;98575.31;5069268;28;20223;-81
2023/08/11 11:18:43;;;;;;;3.20;2.90;;;;;;;27.77;47.98;98567.63;5068653;28;20227;-81
2023/08/11 11:21:12;;;;;;;3.28;2.80;;;;;;;27.74;47.78;98566.13;5067828;28;20227;-81
2023/08/11 11:23:39;;;;;;;2.80;2.40;;;;;;;27.98;44.90;98540.31;5068821;28;20214;-81
2023/08/11 11:26:05;;;;;;;2.67;2.30;;;;;;;27.84;44.45;98534.03;5070816;28;20211;-81
2023/08/11 11:28:33;;;;;;;2.60;2.40;;;;;;;27.89;45.85;98538.81;5070460;28;20211;-81
2023/08/11 11:31:01;;;;;;;3.10;2.58;;;;;;;27.87;46.39;98555.31;5070622;28;20262;-81
2023/08/11 11:33:28;;;;;;;5.00;2.85;;;;;;;27.86;46.48;98541.94;5070689;28;20218;-81
2023/08/11 11:35:57;;;;;;;2.75;2.50;;;;;;;27.88;46.63;98539.88;5071420;28;20203;-78